sensor_id;sensor_type;location;lat;lon;timestamp;P1;durP1;ratioP1;P2;durP2;ratioP2
56043;SDS011;41912;51.022;3.664;2023-08-06T00:00:19;8.95;;;4.07;;
56043;SDS011;41912;51.022;3.664;2023-08-06T00:02:45;12.88;;;4.10;;
56043;SDS011;41912;51.022;3.664;2023-08-06T00:05:10;13.07;;;4.47;;
56043;SDS011;41912;51.022;3.664;2023-08-06T00:07:36;14.05;;;5.03;;
56043;SDS011;41912;51.022;3.664;2023-08-06T00:10:01;12.35;;;5.05;;
56043;SDS011;41912;51.022;3.664;2023-08-06T00:12:28;12.23;;;5.90;;
56043;SDS011;41912;51.022;3.664;2023-08-06T00:14:54;10.27;;;5.63;;
56043;SDS011;41912;51.022;3.664;2023-08-06T00:17:19;10.77;;;6.07;;
56043;SDS011;41912;51.022;3.664;2023-08-06T00:19:45;12.60;;;6.30;;
56043;SDS011;41912;51.022;3.664;2023-08-06T00:22:11;9.38;;;6.35;;
56043;SDS011;41912;51.022;3.664;2023-08-06T00:24:36;15.50;;;5.82;;
56043;SDS011;41912;51.022;3.664;2023-08-06T00:27:02;8.93;;;5.53;;
56043;SDS011;41912;51.022;3.664;2023-08-06T00:29:28;11.65;;;5.10;;
56043;SDS011;41912;51.022;3.664;2023-08-06T00:31:54;12.45;;;4.63;;
56043;SDS011;41912;51.022;3.664;2023-08-06T00:34:19;11.77;;;4.40;;
56043;SDS011;41912;51.022;3.664;2023-08-06T00:36:45;10.13;;;3.28;;
56043;SDS011;41912;51.022;3.664;2023-08-06T00:39:11;16.02;;;3.58;;
56043;SDS011;41912;51.022;3.664;2023-08-06T00:41:36;7.65;;;2.08;;
56043;SDS011;41912;51.022;3.664;2023-08-06T00:44:02;7.00;;;2.47;;
56043;SDS011;41912;51.022;3.664;2023-08-06T00:46:28;13.27;;;2.53;;
56043;SDS011;41912;51.022;3.664;2023-08-06T00:48:54;9.52;;;2.00;;
56043;SDS011;41912;51.022;3.664;2023-08-06T00:51:21;9.55;;;1.67;;
56043;SDS011;41912;51.022;3.664;2023-08-06T00:53:48;12.02;;;1.75;;
56043;SDS011;41912;51.022;3.664;2023-08-06T00:56:15;9.52;;;1.83;;
56043;SDS011;41912;51.022;3.664;2023-08-06T00:58:41;12.80;;;1.50;;
56043;SDS011;41912;51.022;3.664;2023-08-06T01:01:06;7.97;;;1.50;;
56043;SDS011;41912;51.022;3.664;2023-08-06T01:03:32;8.73;;;1.95;;
56043;SDS011;41912;51.022;3.664;2023-08-06T01:05:58;7.57;;;2.22;;
56043;SDS011;41912;51.022;3.664;2023-08-06T01:08:30;10.65;;;2.60;;
56043;SDS011;41912;51.022;3.664;2023-08-06T01:16:46;11.50;;;4.43;;
56043;SDS011;41912;51.022;3.664;2023-08-06T01:19:18;8.95;;;4.45;;
56043;SDS011;41912;51.022;3.664;2023-08-06T01:21:44;11.05;;;5.70;;
56043;SDS011;41912;51.022;3.664;2023-08-06T01:24:10;9.75;;;5.43;;
56043;SDS011;41912;51.022;3.664;2023-08-06T01:29:30;15.23;;;6.60;;
56043;SDS011;41912;51.022;3.664;2023-08-06T01:32:00;14.02;;;6.60;;
56043;SDS011;41912;51.022;3.664;2023-08-06T01:34:28;15.57;;;7.65;;
56043;SDS011;41912;51.022;3.664;2023-08-06T01:36:57;11.68;;;7.10;;
56043;SDS011;41912;51.022;3.664;2023-08-06T01:39:24;9.00;;;6.57;;
56043;SDS011;41912;51.022;3.664;2023-08-06T01:41:50;10.75;;;5.25;;
56043;SDS011;41912;51.022;3.664;2023-08-06T01:44:16;9.30;;;5.93;;
56043;SDS011;41912;51.022;3.664;2023-08-06T01:46:42;9.45;;;4.43;;
56043;SDS011;41912;51.022;3.664;2023-08-06T01:49:07;10.70;;;4.82;;
56043;SDS011;41912;51.022;3.664;2023-08-06T01:51:33;7.38;;;4.05;;
56043;SDS011;41912;51.022;3.664;2023-08-06T01:53:59;3.72;;;2.95;;
56043;SDS011;41912;51.022;3.664;2023-08-06T01:56:24;5.90;;;2.75;;
56043;SDS011;41912;51.022;3.664;2023-08-06T01:58:50;4.05;;;2.13;;
56043;SDS011;41912;51.022;3.664;2023-08-06T02:01:15;5.88;;;1.73;;
56043;SDS011;41912;51.022;3.664;2023-08-06T02:03:41;4.55;;;1.45;;
56043;SDS011;41912;51.022;3.664;2023-08-06T02:06:07;5.43;;;1.70;;
56043;SDS011;41912;51.022;3.664;2023-08-06T02:08:32;5.47;;;1.75;;
56043;SDS011;41912;51.022;3.664;2023-08-06T02:10:58;3.20;;;1.40;;
56043;SDS011;41912;51.022;3.664;2023-08-06T02:13:24;3.17;;;1.58;;
56043;SDS011;41912;51.022;3.664;2023-08-06T02:15:50;7.40;;;1.70;;
56043;SDS011;41912;51.022;3.664;2023-08-06T02:18:16;7.65;;;2.20;;
56043;SDS011;41912;51.022;3.664;2023-08-06T02:20:42;10.10;;;2.00;;
56043;SDS011;41912;51.022;3.664;2023-08-06T02:23:07;10.90;;;1.85;;
56043;SDS011;41912;51.022;3.664;2023-08-06T02:25:34;8.65;;;1.58;;
56043;SDS011;41912;51.022;3.664;2023-08-06T02:28:00;6.22;;;1.73;;
56043;SDS011;41912;51.022;3.664;2023-08-06T02:30:25;10.48;;;2.20;;
56043;SDS011;41912;51.022;3.664;2023-08-06T02:32:51;11.00;;;2.70;;
56043;SDS011;41912;51.022;3.664;2023-08-06T02:35:17;6.85;;;2.20;;
56043;SDS011;41912;51.022;3.664;2023-08-06T02:37:42;6.88;;;2.42;;
56043;SDS011;41912;51.022;3.664;2023-08-06T02:40:08;8.32;;;2.15;;
56043;SDS011;41912;51.022;3.664;2023-08-06T02:42:34;8.25;;;2.30;;
56043;SDS011;41912;51.022;3.664;2023-08-06T02:44:59;6.68;;;1.98;;
56043;SDS011;41912;51.022;3.664;2023-08-06T02:47:25;7.25;;;2.08;;
56043;SDS011;41912;51.022;3.664;2023-08-06T02:49:51;9.10;;;2.40;;
56043;SDS011;41912;51.022;3.664;2023-08-06T02:52:16;11.70;;;2.40;;
56043;SDS011;41912;51.022;3.664;2023-08-06T02:54:42;13.75;;;3.50;;
56043;SDS011;41912;51.022;3.664;2023-08-06T02:57:08;10.07;;;3.55;;
56043;SDS011;41912;51.022;3.664;2023-08-06T02:59:33;14.85;;;3.75;;
56043;SDS011;41912;51.022;3.664;2023-08-06T03:01:59;10.75;;;3.55;;
56043;SDS011;41912;51.022;3.664;2023-08-06T03:04:24;13.00;;;4.03;;
56043;SDS011;41912;51.022;3.664;2023-08-06T03:06:50;11.40;;;4.32;;
56043;SDS011;41912;51.022;3.664;2023-08-06T03:09:16;17.02;;;5.25;;
56043;SDS011;41912;51.022;3.664;2023-08-06T03:11:42;11.13;;;4.68;;
56043;SDS011;41912;51.022;3.664;2023-08-06T03:14:08;24.08;;;5.10;;
56043;SDS011;41912;51.022;3.664;2023-08-06T03:16:34;12.00;;;4.50;;
56043;SDS011;41912;51.022;3.664;2023-08-06T03:19:00;12.13;;;4.45;;
56043;SDS011;41912;51.022;3.664;2023-08-06T03:21:26;17.63;;;5.22;;
56043;SDS011;41912;51.022;3.664;2023-08-06T03:23:51;9.68;;;3.95;;
56043;SDS011;41912;51.022;3.664;2023-08-06T03:26:17;8.95;;;3.65;;
56043;SDS011;41912;51.022;3.664;2023-08-06T03:28:43;9.18;;;3.75;;
56043;SDS011;41912;51.022;3.664;2023-08-06T03:31:08;11.10;;;3.67;;
56043;SDS011;41912;51.022;3.664;2023-08-06T03:33:34;16.48;;;4.15;;
56043;SDS011;41912;51.022;3.664;2023-08-06T03:36:00;13.48;;;4.07;;
56043;SDS011;41912;51.022;3.664;2023-08-06T03:38:25;10.45;;;3.78;;
56043;SDS011;41912;51.022;3.664;2023-08-06T03:40:52;12.95;;;3.83;;
56043;SDS011;41912;51.022;3.664;2023-08-06T03:43:18;15.00;;;3.88;;
56043;SDS011;41912;51.022;3.664;2023-08-06T03:45:44;10.70;;;3.55;;
56043;SDS011;41912;51.022;3.664;2023-08-06T03:48:09;14.23;;;3.55;;
56043;SDS011;41912;51.022;3.664;2023-08-06T03:50:35;8.88;;;3.28;;
56043;SDS011;41912;51.022;3.664;2023-08-06T03:53:01;12.82;;;3.20;;
56043;SDS011;41912;51.022;3.664;2023-08-06T03:55:27;12.40;;;3.10;;
56043;SDS011;41912;51.022;3.664;2023-08-06T03:57:52;15.30;;;3.50;;
56043;SDS011;41912;51.022;3.664;2023-08-06T04:00:18;11.32;;;3.80;;
56043;SDS011;41912;51.022;3.664;2023-08-06T04:02:44;20.70;;;3.75;;
56043;SDS011;41912;51.022;3.664;2023-08-06T04:05:09;9.25;;;2.67;;
56043;SDS011;41912;51.022;3.664;2023-08-06T04:07:35;15.70;;;3.20;;
56043;SDS011;41912;51.022;3.664;2023-08-06T04:10:02;9.15;;;2.90;;
56043;SDS011;41912;51.022;3.664;2023-08-06T04:12:29;7.30;;;3.10;;
56043;SDS011;41912;51.022;3.664;2023-08-06T04:14:57;9.43;;;2.63;;
56043;SDS011;41912;51.022;3.664;2023-08-06T04:17:23;15.07;;;2.58;;
56043;SDS011;41912;51.022;3.664;2023-08-06T04:19:52;10.68;;;3.13;;
56043;SDS011;41912;51.022;3.664;2023-08-06T04:22:19;9.98;;;2.50;;
56043;SDS011;41912;51.022;3.664;2023-08-06T04:24:45;7.85;;;2.60;;
56043;SDS011;41912;51.022;3.664;2023-08-06T04:27:11;11.80;;;2.70;;
56043;SDS011;41912;51.022;3.664;2023-08-06T04:29:38;10.00;;;2.40;;
56043;SDS011;41912;51.022;3.664;2023-08-06T04:32:05;8.88;;;2.25;;
56043;SDS011;41912;51.022;3.664;2023-08-06T04:34:32;11.98;;;2.58;;
56043;SDS011;41912;51.022;3.664;2023-08-06T04:36:58;8.48;;;2.60;;
56043;SDS011;41912;51.022;3.664;2023-08-06T04:39:25;9.55;;;2.33;;
56043;SDS011;41912;51.022;3.664;2023-08-06T04:41:50;14.88;;;3.30;;
56043;SDS011;41912;51.022;3.664;2023-08-06T04:44:16;12.27;;;2.78;;
56043;SDS011;41912;51.022;3.664;2023-08-06T04:46:41;7.55;;;2.42;;
56043;SDS011;41912;51.022;3.664;2023-08-06T04:49:07;12.63;;;3.70;;
56043;SDS011;41912;51.022;3.664;2023-08-06T04:51:33;10.75;;;3.00;;
56043;SDS011;41912;51.022;3.664;2023-08-06T04:53:58;10.02;;;2.70;;
56043;SDS011;41912;51.022;3.664;2023-08-06T04:56:24;8.05;;;2.47;;
56043;SDS011;41912;51.022;3.664;2023-08-06T04:58:50;16.27;;;3.10;;
56043;SDS011;41912;51.022;3.664;2023-08-06T05:01:15;8.30;;;2.58;;
56043;SDS011;41912;51.022;3.664;2023-08-06T05:03:41;10.88;;;4.10;;
56043;SDS011;41912;51.022;3.664;2023-08-06T05:06:07;7.90;;;3.25;;
56043;SDS011;41912;51.022;3.664;2023-08-06T05:08:35;5.47;;;2.55;;
56043;SDS011;41912;51.022;3.664;2023-08-06T05:11:01;11.15;;;3.50;;
56043;SDS011;41912;51.022;3.664;2023-08-06T05:13:27;14.88;;;3.60;;
56043;SDS011;41912;51.022;3.664;2023-08-06T05:15:55;10.93;;;3.45;;
56043;SDS011;41912;51.022;3.664;2023-08-06T05:18:21;15.18;;;4.10;;
56043;SDS011;41912;51.022;3.664;2023-08-06T05:20:47;8.93;;;3.22;;
56043;SDS011;41912;51.022;3.664;2023-08-06T05:23:13;9.13;;;3.30;;
56043;SDS011;41912;51.022;3.664;2023-08-06T05:25:38;14.75;;;3.92;;
56043;SDS011;41912;51.022;3.664;2023-08-06T05:28:04;7.60;;;3.13;;
56043;SDS011;41912;51.022;3.664;2023-08-06T05:30:30;17.92;;;4.70;;
56043;SDS011;41912;51.022;3.664;2023-08-06T05:32:55;7.88;;;3.40;;
56043;SDS011;41912;51.022;3.664;2023-08-06T05:35:22;12.00;;;3.63;;
56043;SDS011;41912;51.022;3.664;2023-08-06T05:37:48;12.05;;;4.63;;
56043;SDS011;41912;51.022;3.664;2023-08-06T05:40:15;14.20;;;3.42;;
56043;SDS011;41912;51.022;3.664;2023-08-06T05:42:40;18.05;;;4.35;;
56043;SDS011;41912;51.022;3.664;2023-08-06T05:45:06;13.65;;;3.95;;
56043;SDS011;41912;51.022;3.664;2023-08-06T05:47:32;9.05;;;3.45;;
56043;SDS011;41912;51.022;3.664;2023-08-06T05:49:58;10.63;;;3.33;;
56043;SDS011;41912;51.022;3.664;2023-08-06T05:52:23;12.15;;;3.88;;
56043;SDS011;41912;51.022;3.664;2023-08-06T05:54:49;13.63;;;3.30;;
56043;SDS011;41912;51.022;3.664;2023-08-06T05:57:15;9.35;;;2.38;;
56043;SDS011;41912;51.022;3.664;2023-08-06T05:59:41;8.80;;;2.00;;
56043;SDS011;41912;51.022;3.664;2023-08-06T06:02:07;4.43;;;1.85;;
56043;SDS011;41912;51.022;3.664;2023-08-06T06:04:33;12.25;;;2.28;;
56043;SDS011;41912;51.022;3.664;2023-08-06T06:06:58;12.77;;;2.20;;
56043;SDS011;41912;51.022;3.664;2023-08-06T06:09:24;7.72;;;1.38;;
56043;SDS011;41912;51.022;3.664;2023-08-06T06:11:50;7.60;;;1.60;;
56043;SDS011;41912;51.022;3.664;2023-08-06T06:14:18;6.70;;;1.20;;
56043;SDS011;41912;51.022;3.664;2023-08-06T06:16:44;16.77;;;1.98;;
56043;SDS011;41912;51.022;3.664;2023-08-06T06:19:11;11.13;;;2.08;;
56043;SDS011;41912;51.022;3.664;2023-08-06T06:21:37;13.43;;;2.47;;
56043;SDS011;41912;51.022;3.664;2023-08-06T06:24:03;8.93;;;1.52;;
56043;SDS011;41912;51.022;3.664;2023-08-06T06:26:30;13.95;;;2.20;;
56043;SDS011;41912;51.022;3.664;2023-08-06T06:28:56;10.68;;;1.90;;
56043;SDS011;41912;51.022;3.664;2023-08-06T06:31:22;17.90;;;2.10;;
56043;SDS011;41912;51.022;3.664;2023-08-06T06:33:48;7.70;;;1.55;;
56043;SDS011;41912;51.022;3.664;2023-08-06T06:36:14;9.90;;;2.35;;
56043;SDS011;41912;51.022;3.664;2023-08-06T06:38:39;12.43;;;1.90;;
56043;SDS011;41912;51.022;3.664;2023-08-06T06:41:05;12.40;;;1.83;;
56043;SDS011;41912;51.022;3.664;2023-08-06T06:43:31;14.30;;;1.83;;
56043;SDS011;41912;51.022;3.664;2023-08-06T06:45:57;18.10;;;1.88;;
56043;SDS011;41912;51.022;3.664;2023-08-06T06:48:28;13.43;;;2.05;;
56043;SDS011;41912;51.022;3.664;2023-08-06T06:50:56;14.30;;;2.27;;
56043;SDS011;41912;51.022;3.664;2023-08-06T06:53:22;11.30;;;1.98;;
56043;SDS011;41912;51.022;3.664;2023-08-06T06:56:00;14.23;;;1.83;;
56043;SDS011;41912;51.022;3.664;2023-08-06T06:58:27;14.77;;;2.60;;
56043;SDS011;41912;51.022;3.664;2023-08-06T07:00:52;10.02;;;1.92;;
56043;SDS011;41912;51.022;3.664;2023-08-06T07:03:19;13.05;;;2.45;;
56043;SDS011;41912;51.022;3.664;2023-08-06T07:05:45;12.10;;;2.35;;
56043;SDS011;41912;51.022;3.664;2023-08-06T07:08:11;13.55;;;2.40;;
56043;SDS011;41912;51.022;3.664;2023-08-06T07:10:36;12.43;;;3.00;;
56043;SDS011;41912;51.022;3.664;2023-08-06T07:13:02;17.33;;;2.45;;
56043;SDS011;41912;51.022;3.664;2023-08-06T07:15:28;8.20;;;1.95;;
56043;SDS011;41912;51.022;3.664;2023-08-06T07:17:54;13.60;;;2.55;;
56043;SDS011;41912;51.022;3.664;2023-08-06T07:20:20;15.80;;;2.53;;
56043;SDS011;41912;51.022;3.664;2023-08-06T07:22:45;7.60;;;1.63;;
56043;SDS011;41912;51.022;3.664;2023-08-06T07:25:11;11.45;;;2.50;;
56043;SDS011;41912;51.022;3.664;2023-08-06T07:27:37;9.07;;;2.33;;
56043;SDS011;41912;51.022;3.664;2023-08-06T07:30:03;9.93;;;1.90;;
56043;SDS011;41912;51.022;3.664;2023-08-06T07:32:30;5.95;;;1.52;;
56043;SDS011;41912;51.022;3.664;2023-08-06T07:34:56;9.18;;;2.20;;
56043;SDS011;41912;51.022;3.664;2023-08-06T07:37:25;8.85;;;1.63;;
56043;SDS011;41912;51.022;3.664;2023-08-06T07:39:54;10.25;;;1.50;;
56043;SDS011;41912;51.022;3.664;2023-08-06T07:42:22;8.07;;;1.52;;
56043;SDS011;41912;51.022;3.664;2023-08-06T07:44:52;6.22;;;1.52;;
56043;SDS011;41912;51.022;3.664;2023-08-06T07:47:19;8.73;;;1.85;;
56043;SDS011;41912;51.022;3.664;2023-08-06T07:49:45;14.55;;;1.60;;
56043;SDS011;41912;51.022;3.664;2023-08-06T07:52:11;8.82;;;1.88;;
56043;SDS011;41912;51.022;3.664;2023-08-06T07:54:36;9.43;;;2.17;;
56043;SDS011;41912;51.022;3.664;2023-08-06T07:57:02;7.70;;;1.83;;
56043;SDS011;41912;51.022;3.664;2023-08-06T07:59:28;13.32;;;2.28;;
56043;SDS011;41912;51.022;3.664;2023-08-06T08:01:53;10.75;;;1.85;;
56043;SDS011;41912;51.022;3.664;2023-08-06T08:04:19;14.13;;;2.08;;
56043;SDS011;41912;51.022;3.664;2023-08-06T08:06:46;8.63;;;2.05;;
56043;SDS011;41912;51.022;3.664;2023-08-06T08:09:12;11.35;;;2.40;;
56043;SDS011;41912;51.022;3.664;2023-08-06T08:11:38;9.20;;;1.63;;
56043;SDS011;41912;51.022;3.664;2023-08-06T08:14:04;12.55;;;2.10;;
56043;SDS011;41912;51.022;3.664;2023-08-06T08:16:30;13.50;;;2.30;;
56043;SDS011;41912;51.022;3.664;2023-08-06T08:18:56;9.30;;;2.58;;
56043;SDS011;41912;51.022;3.664;2023-08-06T08:21:21;7.15;;;1.65;;
56043;SDS011;41912;51.022;3.664;2023-08-06T08:23:49;15.35;;;2.95;;
56043;SDS011;41912;51.022;3.664;2023-08-06T08:26:15;14.40;;;2.08;;
56043;SDS011;41912;51.022;3.664;2023-08-06T08:28:40;16.58;;;1.80;;
56043;SDS011;41912;51.022;3.664;2023-08-06T08:31:09;15.13;;;2.47;;
56043;SDS011;41912;51.022;3.664;2023-08-06T08:33:36;11.95;;;1.83;;
56043;SDS011;41912;51.022;3.664;2023-08-06T08:36:04;9.45;;;1.83;;
56043;SDS011;41912;51.022;3.664;2023-08-06T08:38:30;11.00;;;3.15;;
56043;SDS011;41912;51.022;3.664;2023-08-06T08:40:55;12.52;;;2.10;;
56043;SDS011;41912;51.022;3.664;2023-08-06T08:43:21;9.80;;;2.25;;
56043;SDS011;41912;51.022;3.664;2023-08-06T08:45:51;10.40;;;2.17;;
56043;SDS011;41912;51.022;3.664;2023-08-06T08:48:18;14.35;;;2.45;;
56043;SDS011;41912;51.022;3.664;2023-08-06T08:50:45;16.33;;;2.30;;
56043;SDS011;41912;51.022;3.664;2023-08-06T08:53:13;8.02;;;2.00;;
56043;SDS011;41912;51.022;3.664;2023-08-06T08:55:40;16.75;;;2.67;;
56043;SDS011;41912;51.022;3.664;2023-08-06T08:58:07;11.13;;;2.10;;
56043;SDS011;41912;51.022;3.664;2023-08-06T09:00:33;14.95;;;2.00;;
56043;SDS011;41912;51.022;3.664;2023-08-06T09:03:00;11.40;;;2.20;;
56043;SDS011;41912;51.022;3.664;2023-08-06T09:05:27;10.75;;;1.67;;
56043;SDS011;41912;51.022;3.664;2023-08-06T09:07:56;10.80;;;2.22;;
56043;SDS011;41912;51.022;3.664;2023-08-06T09:10:29;11.40;;;2.15;;
56043;SDS011;41912;51.022;3.664;2023-08-06T09:12:55;12.48;;;1.98;;
56043;SDS011;41912;51.022;3.664;2023-08-06T09:15:25;8.05;;;1.52;;
56043;SDS011;41912;51.022;3.664;2023-08-06T09:17:52;15.15;;;2.97;;
56043;SDS011;41912;51.022;3.664;2023-08-06T09:20:19;6.45;;;1.70;;
56043;SDS011;41912;51.022;3.664;2023-08-06T09:22:45;12.27;;;2.05;;
56043;SDS011;41912;51.022;3.664;2023-08-06T09:25:13;13.20;;;2.35;;
56043;SDS011;41912;51.022;3.664;2023-08-06T09:27:48;11.55;;;2.03;;
56043;SDS011;41912;51.022;3.664;2023-08-06T09:30:28;10.13;;;1.98;;
56043;SDS011;41912;51.022;3.664;2023-08-06T09:32:57;12.20;;;2.55;;
56043;SDS011;41912;51.022;3.664;2023-08-06T09:35:23;10.52;;;2.15;;
56043;SDS011;41912;51.022;3.664;2023-08-06T09:37:49;6.15;;;1.95;;
56043;SDS011;41912;51.022;3.664;2023-08-06T09:40:27;14.40;;;2.13;;
56043;SDS011;41912;51.022;3.664;2023-08-06T09:42:54;9.57;;;2.50;;
56043;SDS011;41912;51.022;3.664;2023-08-06T09:45:20;11.65;;;2.28;;
56043;SDS011;41912;51.022;3.664;2023-08-06T09:47:55;18.92;;;2.10;;
56043;SDS011;41912;51.022;3.664;2023-08-06T09:50:21;12.23;;;2.65;;
56043;SDS011;41912;51.022;3.664;2023-08-06T09:52:47;17.80;;;2.20;;
56043;SDS011;41912;51.022;3.664;2023-08-06T09:55:14;14.27;;;3.28;;
56043;SDS011;41912;51.022;3.664;2023-08-06T09:57:41;12.93;;;2.42;;
56043;SDS011;41912;51.022;3.664;2023-08-06T10:00:07;13.68;;;2.30;;
56043;SDS011;41912;51.022;3.664;2023-08-06T10:02:35;8.32;;;2.20;;
56043;SDS011;41912;51.022;3.664;2023-08-06T10:05:03;13.45;;;2.53;;
56043;SDS011;41912;51.022;3.664;2023-08-06T10:07:30;17.02;;;2.58;;
56043;SDS011;41912;51.022;3.664;2023-08-06T10:09:55;10.80;;;2.50;;
56043;SDS011;41912;51.022;3.664;2023-08-06T10:12:22;11.35;;;2.30;;
56043;SDS011;41912;51.022;3.664;2023-08-06T10:14:50;6.60;;;2.40;;
56043;SDS011;41912;51.022;3.664;2023-08-06T10:17:18;6.22;;;2.08;;
56043;SDS011;41912;51.022;3.664;2023-08-06T10:19:48;9.57;;;2.35;;
56043;SDS011;41912;51.022;3.664;2023-08-06T10:22:16;15.80;;;2.40;;
56043;SDS011;41912;51.022;3.664;2023-08-06T10:27:11;10.82;;;2.13;;
56043;SDS011;41912;51.022;3.664;2023-08-06T10:29:37;8.82;;;2.15;;
56043;SDS011;41912;51.022;3.664;2023-08-06T10:32:03;11.52;;;2.20;;
56043;SDS011;41912;51.022;3.664;2023-08-06T10:37:24;9.60;;;2.13;;
56043;SDS011;41912;51.022;3.664;2023-08-06T10:39:59;7.38;;;1.83;;
56043;SDS011;41912;51.022;3.664;2023-08-06T10:42:28;9.68;;;1.75;;
56043;SDS011;41912;51.022;3.664;2023-08-06T10:45:11;12.35;;;1.92;;
56043;SDS011;41912;51.022;3.664;2023-08-06T10:47:41;7.57;;;1.70;;
56043;SDS011;41912;51.022;3.664;2023-08-06T10:50:07;7.07;;;1.60;;
56043;SDS011;41912;51.022;3.664;2023-08-06T10:52:35;10.93;;;1.90;;
56043;SDS011;41912;51.022;3.664;2023-08-06T10:55:01;9.82;;;2.00;;
56043;SDS011;41912;51.022;3.664;2023-08-06T10:57:27;11.63;;;2.00;;
56043;SDS011;41912;51.022;3.664;2023-08-06T10:59:52;12.60;;;2.20;;
56043;SDS011;41912;51.022;3.664;2023-08-06T11:02:18;10.35;;;1.85;;
56043;SDS011;41912;51.022;3.664;2023-08-06T11:04:43;9.63;;;2.60;;
56043;SDS011;41912;51.022;3.664;2023-08-06T11:07:09;12.20;;;1.90;;
56043;SDS011;41912;51.022;3.664;2023-08-06T11:09:35;10.77;;;2.42;;
56043;SDS011;41912;51.022;3.664;2023-08-06T11:12:02;11.65;;;2.13;;
56043;SDS011;41912;51.022;3.664;2023-08-06T11:14:30;7.90;;;2.13;;
56043;SDS011;41912;51.022;3.664;2023-08-06T11:16:55;7.22;;;1.90;;
56043;SDS011;41912;51.022;3.664;2023-08-06T11:19:22;8.80;;;1.48;;
56043;SDS011;41912;51.022;3.664;2023-08-06T11:21:51;8.63;;;2.10;;
56043;SDS011;41912;51.022;3.664;2023-08-06T11:24:17;5.47;;;1.30;;
56043;SDS011;41912;51.022;3.664;2023-08-06T11:26:43;10.68;;;3.05;;
56043;SDS011;41912;51.022;3.664;2023-08-06T11:29:09;12.00;;;2.10;;
56043;SDS011;41912;51.022;3.664;2023-08-06T11:31:35;7.45;;;2.63;;
56043;SDS011;41912;51.022;3.664;2023-08-06T11:34:01;8.15;;;1.98;;
56043;SDS011;41912;51.022;3.664;2023-08-06T11:38:56;9.77;;;2.75;;
56043;SDS011;41912;51.022;3.664;2023-08-06T11:41:23;11.93;;;1.80;;
56043;SDS011;41912;51.022;3.664;2023-08-06T11:43:49;6.20;;;2.00;;
56043;SDS011;41912;51.022;3.664;2023-08-06T11:46:14;13.77;;;2.50;;
56043;SDS011;41912;51.022;3.664;2023-08-06T11:48:53;10.13;;;1.70;;
56043;SDS011;41912;51.022;3.664;2023-08-06T11:51:23;10.57;;;2.92;;
56043;SDS011;41912;51.022;3.664;2023-08-06T11:53:51;12.40;;;2.25;;
56043;SDS011;41912;51.022;3.664;2023-08-06T11:56:23;11.45;;;2.20;;
56043;SDS011;41912;51.022;3.664;2023-08-06T11:58:50;12.52;;;1.92;;
56043;SDS011;41912;51.022;3.664;2023-08-06T12:01:16;11.35;;;2.15;;
56043;SDS011;41912;51.022;3.664;2023-08-06T12:03:42;10.40;;;1.85;;
56043;SDS011;41912;51.022;3.664;2023-08-06T12:06:08;7.25;;;1.52;;
56043;SDS011;41912;51.022;3.664;2023-08-06T12:08:33;7.13;;;1.85;;
56043;SDS011;41912;51.022;3.664;2023-08-06T12:10:59;15.90;;;2.08;;
56043;SDS011;41912;51.022;3.664;2023-08-06T12:13:25;7.15;;;1.80;;
56043;SDS011;41912;51.022;3.664;2023-08-06T12:15:50;10.55;;;1.77;;
56043;SDS011;41912;51.022;3.664;2023-08-06T12:18:18;8.07;;;1.90;;
56043;SDS011;41912;51.022;3.664;2023-08-06T12:20:44;8.70;;;2.00;;
56043;SDS011;41912;51.022;3.664;2023-08-06T12:23:10;10.40;;;1.70;;
56043;SDS011;41912;51.022;3.664;2023-08-06T12:25:38;11.07;;;1.75;;
56043;SDS011;41912;51.022;3.664;2023-08-06T12:28:04;5.53;;;2.00;;
56043;SDS011;41912;51.022;3.664;2023-08-06T12:30:30;5.13;;;1.50;;
56043;SDS011;41912;51.022;3.664;2023-08-06T12:32:56;12.07;;;1.90;;
56043;SDS011;41912;51.022;3.664;2023-08-06T12:35:22;15.82;;;2.40;;
56043;SDS011;41912;51.022;3.664;2023-08-06T12:37:47;15.52;;;2.05;;
56043;SDS011;41912;51.022;3.664;2023-08-06T12:40:16;9.27;;;2.20;;
56043;SDS011;41912;51.022;3.664;2023-08-06T12:42:41;9.07;;;1.55;;
56043;SDS011;41912;51.022;3.664;2023-08-06T12:45:07;10.00;;;2.15;;
56043;SDS011;41912;51.022;3.664;2023-08-06T12:47:33;7.47;;;1.85;;
56043;SDS011;41912;51.022;3.664;2023-08-06T12:49:58;10.63;;;1.88;;
56043;SDS011;41912;51.022;3.664;2023-08-06T12:52:24;9.13;;;1.75;;
56043;SDS011;41912;51.022;3.664;2023-08-06T12:54:50;6.05;;;1.80;;
56043;SDS011;41912;51.022;3.664;2023-08-06T12:57:15;10.48;;;1.90;;
56043;SDS011;41912;51.022;3.664;2023-08-06T12:59:42;10.45;;;2.13;;
56043;SDS011;41912;51.022;3.664;2023-08-06T13:02:07;9.23;;;2.08;;
56043;SDS011;41912;51.022;3.664;2023-08-06T13:04:33;12.40;;;2.42;;
56043;SDS011;41912;51.022;3.664;2023-08-06T13:06:59;11.10;;;2.53;;
56043;SDS011;41912;51.022;3.664;2023-08-06T13:09:24;12.85;;;2.05;;
56043;SDS011;41912;51.022;3.664;2023-08-06T13:11:51;12.98;;;2.35;;
56043;SDS011;41912;51.022;3.664;2023-08-06T13:14:18;13.07;;;1.75;;
56043;SDS011;41912;51.022;3.664;2023-08-06T13:16:43;7.95;;;2.35;;
56043;SDS011;41912;51.022;3.664;2023-08-06T13:19:09;8.93;;;1.75;;
56043;SDS011;41912;51.022;3.664;2023-08-06T13:21:57;7.60;;;1.50;;
56043;SDS011;41912;51.022;3.664;2023-08-06T13:24:26;9.60;;;2.30;;
56043;SDS011;41912;51.022;3.664;2023-08-06T13:26:52;5.50;;;1.33;;
56043;SDS011;41912;51.022;3.664;2023-08-06T13:29:18;6.10;;;1.35;;
56043;SDS011;41912;51.022;3.664;2023-08-06T13:31:43;8.48;;;2.33;;
56043;SDS011;41912;51.022;3.664;2023-08-06T13:34:09;9.55;;;1.92;;
56043;SDS011;41912;51.022;3.664;2023-08-06T13:36:34;8.68;;;1.83;;
56043;SDS011;41912;51.022;3.664;2023-08-06T13:39:00;9.23;;;1.60;;
56043;SDS011;41912;51.022;3.664;2023-08-06T13:41:26;8.45;;;2.03;;
56043;SDS011;41912;51.022;3.664;2023-08-06T13:43:51;8.38;;;1.80;;
56043;SDS011;41912;51.022;3.664;2023-08-06T13:46:18;8.43;;;2.00;;
56043;SDS011;41912;51.022;3.664;2023-08-06T13:48:45;9.80;;;2.05;;
56043;SDS011;41912;51.022;3.664;2023-08-06T13:51:11;6.47;;;1.98;;
56043;SDS011;41912;51.022;3.664;2023-08-06T13:53:38;9.73;;;1.83;;
56043;SDS011;41912;51.022;3.664;2023-08-06T13:56:05;9.18;;;2.15;;
56043;SDS011;41912;51.022;3.664;2023-08-06T13:58:31;8.27;;;1.77;;
56043;SDS011;41912;51.022;3.664;2023-08-06T14:00:57;9.07;;;2.15;;
56043;SDS011;41912;51.022;3.664;2023-08-06T14:03:23;11.30;;;2.33;;
56043;SDS011;41912;51.022;3.664;2023-08-06T14:05:49;10.63;;;2.25;;
56043;SDS011;41912;51.022;3.664;2023-08-06T14:08:15;11.88;;;2.58;;
56043;SDS011;41912;51.022;3.664;2023-08-06T14:10:43;11.00;;;2.10;;
56043;SDS011;41912;51.022;3.664;2023-08-06T14:13:09;10.52;;;2.20;;
56043;SDS011;41912;51.022;3.664;2023-08-06T14:15:35;11.07;;;2.13;;
56043;SDS011;41912;51.022;3.664;2023-08-06T14:18:00;10.93;;;2.20;;
56043;SDS011;41912;51.022;3.664;2023-08-06T14:20:27;8.85;;;2.05;;
56043;SDS011;41912;51.022;3.664;2023-08-06T14:22:53;9.93;;;2.15;;
56043;SDS011;41912;51.022;3.664;2023-08-06T14:25:18;21.83;;;4.55;;
56043;SDS011;41912;51.022;3.664;2023-08-06T14:27:44;11.15;;;1.95;;
56043;SDS011;41912;51.022;3.664;2023-08-06T14:30:10;9.35;;;1.92;;
56043;SDS011;41912;51.022;3.664;2023-08-06T14:32:36;10.48;;;2.15;;
56043;SDS011;41912;51.022;3.664;2023-08-06T14:35:01;9.98;;;1.98;;
56043;SDS011;41912;51.022;3.664;2023-08-06T14:37:27;8.35;;;2.72;;
56043;SDS011;41912;51.022;3.664;2023-08-06T14:39:53;6.95;;;1.80;;
56043;SDS011;41912;51.022;3.664;2023-08-06T14:42:18;8.52;;;1.90;;
56043;SDS011;41912;51.022;3.664;2023-08-06T14:44:44;4.60;;;1.45;;
56043;SDS011;41912;51.022;3.664;2023-08-06T14:47:10;10.57;;;1.88;;
56043;SDS011;41912;51.022;3.664;2023-08-06T14:49:35;7.53;;;2.08;;
56043;SDS011;41912;51.022;3.664;2023-08-06T14:52:02;12.77;;;2.05;;